Guy, Texas
Current Conditions -  °F | °C
As of 8:53 AM on Sunday 23 Nov 2014 (Local Time) from KSGR Reporting Station
Clear Clear  
Wind Chill: 63°   Ceiling: Unl
Heat Index: 63°   Visibility: 10mi
Dew Point: 58°   Wind: 9mph
Humidity: 84%   Direction: 240°WSW
Pressure: 29.67"   Gusts: NA
Location:  29.34°N, 95.78°W
Report Text: KSGR 231453Z 24008KT 10SM CLR 17/14 A2967 RMK AO2 SLP049 T01720144 53003
Loading
Personal Weather Stations






























Interactive Weather Map New forecast layout! Learn more

10-Day Weather Forecast

Advertisements
Track Severe Weather on mobile